ENEV/EVE METAR and TAF weather

Enter ICAO airport designator
Station Type Date Time Source
ENEV METAR 2022/12/10 01:20 UTC NOAA

ENEV 100120Z 11011KT 070V140 CAVOK M06/M13 Q1022 RMK WIND 1400FT 08023G35KT


Station Type Date Time Source
ENEV Decoded METAR 2022/12/10 01:20 UTC NOAA

Evenes, Norway (ENEV) 68-31N 016-41E 26M
Dec 09, 2022 - 08:20 PM EST / 2022.12.10 0120 UTC
Wind: from the ESE (110 degrees) at 13 MPH (11 KT) (direction variable):0
Visibility: greater than 7 mile(s):0
Temperature: 21 F (-6 C)
Windchill: 8 F (-13 C):1
Dew Point: 8 F (-13 C)
Relative Humidity: 57%
Pressure (altimeter): 30.18 in. Hg (1022 hPa)
ob: ENEV 100120Z 11011KT 070V140 CAVOK M06/M13 Q1022 RMK WIND 1400FT 08023G35KT
cycle: 1

Station Type Date Time Source
ENEV TAF 2022/12/09 18:58 UTC NOAA

TAF ENEV 091700Z 0918/1018 11008KT 9999 FEW050
TEMPO 0918/1004 09015G25KT

Example: see airport list